Flight Track Log - Related Links

Times and Time Zones

All times are in EDT time to prevent confusion due to time zone crossing. See the DAL268 flight status page for this flight to view local times or setup timezone preferences in your user account.

Time Position Orientation Groundspeed Altitude Reporting Facility
EDT Latitude Longitude Course Direction KTS MPH feet Rate Location/Type
Thu 18:38:41 33.6328 -84.4756 64° Northeast 441 507 2,400  Level Atlanta Center
Thu 18:39:02 33.6333 -84.5000 272° West 213 245 2,900 2,122 Climbing Atlanta TRACON
Thu 18:40:03 33.5833 -84.5667 228° Southwest 268 308 5,300 2,550 Climbing Atlanta TRACON
Thu 18:41:00 33.6877 -83.8591 101° East  Level FlightAware Approximate
Thu 18:41:02 33.5167 -84.5833 192° South 285 328 8,000  Level Atlanta TRACON
Thu 18:42:00 33.6642 -83.7184 101° East  Level FlightAware Approximate
Thu 18:42:41 33.4575 -84.4644 121° Southeast 267 307 10,700  Level Atlanta Center
Thu 18:43:00 33.6708 -83.5824 64° Northeast  Level FlightAware Approximate
Thu 18:43:41 33.4578 -84.3575 90° East 311 358 11,500  Level Atlanta Center
Thu 18:44:00 33.7234 -83.4535 64° Northeast  Level FlightAware Approximate
Thu 18:44:41 33.4769 -84.2231 80° East 376 433 13,200  Level Atlanta Center
Thu 18:45:41 33.5333 -84.0961 62° Northeast 397 457 15,200 2,050 Climbing Atlanta Center
Thu 18:46:41 33.5875 -83.9664 63° Northeast 423 487 17,300 1,700 Climbing Atlanta Center
Thu 18:47:41 33.6250 -83.8217 73° East 436 502 18,600 1,350 Climbing Atlanta Center
Thu 18:48:41 33.6581 -83.6669 76° East 458 527 20,000 1,350 Climbing Atlanta Center
Thu 18:49:41 33.7097 -83.5194 67° East 477 549 21,300 1,450 Climbing Atlanta Center
Thu 18:50:41 33.7694 -83.3717 64° Northeast 477 549 22,900 1,350 Climbing Atlanta Center
Thu 18:51:41 33.8292 -83.2211 64° Northeast 490 564 24,000 1,100 Climbing Atlanta Center
Thu 18:52:41 33.8906 -83.0703 64° Northeast 496 571 25,100 1,300 Climbing Atlanta Center
Thu 18:53:41 33.9581 -82.9017 64° Northeast 501 577 26,600 1,300 Climbing Atlanta Center
Thu 18:54:41 34.0169 -82.7456 65° Northeast 501 577 27,700 1,050 Climbing Atlanta Center
Thu 18:55:41 34.0800 -82.5942 63° Northeast 501 577 28,700 900 Climbing Atlanta Center
Thu 18:56:41 34.1347 -82.4528 65° Northeast 507 583 29,500 1,000 Climbing Atlanta Center
Thu 18:57:41 34.1950 -82.2958 65° Northeast 507 583 30,700 1,050 Climbing Atlanta Center
Thu 18:58:41 34.2575 -82.1414 64° Northeast 507 583 31,600 900 Climbing Atlanta Center
Thu 18:59:41 34.3283 -81.9989 59° Northeast 501 577 32,500 700 Climbing Atlanta Center
Thu 19:00:41 34.3989 -81.8561 59° Northeast 496 571 33,000 250 Climbing Atlanta Center
Thu 19:01:41 34.4694 -81.7158 59° Northeast 491 565 33,000  Level Atlanta Center
Thu 19:02:41 34.5394 -81.5700 60° Northeast 491 565 33,000  Level Atlanta Center
Thu 19:03:41 34.6117 -81.4292 58° Northeast 491 565 33,000  Level Atlanta Center
Thu 19:04:41 34.6897 -81.2725 59° Northeast 491 565 33,000  Level Atlanta Center
Thu 19:05:41 34.7594 -81.1286 59° Northeast 499 574 33,000  Level Atlanta Center
Thu 19:06:41 34.8289 -80.9794 60° Northeast 499 574 33,000  Level Atlanta Center
Thu 19:07:41 34.9003 -80.8378 58° Northeast 493 567 33,000  Level Atlanta Center
Thu 19:08:41 34.9714 -80.6878 60° Northeast 503 579 33,000  Level Atlanta Center
Thu 19:09:41 35.0406 -80.5456 59° Northeast 498 573 33,000  Level Atlanta Center
Thu 19:11:39 35.1781 -80.2600 59° Northeast 483 556 33,000  Level Washington Center
Thu 19:12:39 35.2483 -80.1142 59° Northeast 489 563 33,000  Level Washington Center
Thu 19:13:39 35.3183 -79.9728 59° Northeast 489 563 33,000  Level Washington Center
Thu 19:14:39 35.3864 -79.8264 60° Northeast 489 563 33,000  Level Washington Center
Thu 19:15:39 35.4561 -79.6794 60° Northeast 494 568 33,000  Level Washington Center
Thu 19:16:39 35.5256 -79.5375 59° Northeast 494 568 33,000  Level Washington Center
Thu 19:17:39 35.5931 -79.3878 61° Northeast 494 568 33,000  Level Washington Center
Thu 19:18:39 35.6644 -79.2403 59° Northeast 494 568 33,000  Level Washington Center
Thu 19:19:39 35.7336 -79.0900 60° Northeast 494 568 33,000  Level Washington Center
Thu 19:20:39 35.8025 -78.9419 60° Northeast 494 568 33,000  Level Washington Center
Thu 19:21:39 35.8672 -78.7883 62° Northeast 494 568 33,000  Level Washington Center
Thu 19:22:39 35.8947 -78.6125 79° East 500 575 33,000  Level Washington Center
Thu 19:23:39 35.9111 -78.4514 83° East 508 585 33,000  Level Washington Center
Thu 19:24:39 35.9258 -78.2700 84° East 521 600 33,000  Level Washington Center
Thu 19:25:39 35.9422 -78.0933 83° East 521 600 33,000  Level Washington Center
Thu 19:26:39 35.9603 -77.9144 83° East 521 600 33,000  Level Washington Center
Thu 19:27:39 35.9803 -77.7353 82° East 521 600 33,000  Level Washington Center
Thu 19:28:39 36.0475 -77.5881 61° Northeast 499 574 33,000  Level Washington Center
Thu 19:29:39 36.1375 -77.4514 51° Northeast 486 559 33,000  Level Washington Center
Thu 19:30:39 36.2331 -77.3406 43° Northeast 481 554 33,000  Level Washington Center
Thu 19:31:39 36.3389 -77.2319 40° Northeast 481 554 33,000  Level Washington Center
Thu 19:32:39 36.4467 -77.1258 38° Northeast 481 554 33,000  Level Washington Center
Thu 19:33:39 36.5544 -77.0167 39° Northeast 488 562 33,000  Level Washington Center
Thu 19:34:39 36.6619 -76.9097 39° Northeast 488 562 33,000  Level Washington Center
Thu 19:35:39 36.7822 -76.7875 39° Northeast 497 572 33,000  Level Washington Center
Thu 19:36:39 36.8917 -76.6747 39° Northeast 502 578 33,000  Level Washington Center
Thu 19:37:39 37.0033 -76.5619 39° Northeast 502 578 33,000  Level Washington Center
Thu 19:38:39 37.1106 -76.4514 39° Northeast 507 583 33,000  Level Washington Center
Thu 19:39:39 37.2178 -76.3378 40° Northeast 507 583 33,000  Level Washington Center
Thu 19:40:39 37.3269 -76.2239 40° Northeast 507 583 33,000  Level Washington Center
Thu 19:41:39 37.4378 -76.1175 37° Northeast 507 583 33,000  Level Washington Center
Thu 19:42:39 37.5447 -76.0056 40° Northeast 502 578 33,000  Level Washington Center
Thu 19:43:39 37.6514 -75.8933 40° Northeast 502 578 33,000  Level Washington Center
Thu 19:44:39 37.7581 -75.7836 39° Northeast 497 572 33,000  Level Washington Center
Thu 19:45:39 37.8667 -75.6706 39° Northeast 497 572 33,000  Level Washington Center
Thu 19:46:39 37.9750 -75.5603 39° Northeast 497 572 33,000 -50 Level Washington Center
Thu 19:47:39 38.0856 -75.4544 37° Northeast 497 572 32,900  Descending Washington Center
Thu 19:48:39 38.2064 -75.3750 27° Northeast 486 559 33,000 50 Climbing Washington Center
Thu 19:49:39 38.3269 -75.2925 28° Northeast 481 554 33,000  Level Washington Center
Thu 19:50:39 38.4478 -75.2153 27° Northeast 481 554 33,000  Level Washington Center
Thu 19:51:39 38.5706 -75.1403 26° Northeast 481 554 33,000  Level Washington Center
Thu 19:52:39 38.6931 -75.0622 26° Northeast 481 554 33,000 -250 Level Washington Center
Thu 19:53:39 38.8158 -74.9817 27° Northeast 486 559 32,500 -1,000 Descending Washington Center
Thu 19:54:39 38.9383 -74.9031 27° Northeast 486 559 31,000 -1,800 Descending Washington Center
Thu 19:55:39 39.0608 -74.8244 26° Northeast 486 559 28,900 -2,082 Descending Washington Center
Thu 19:57:29 39.2561 -74.6317 37° Northeast 502 578 25,100 -2,414 Descending New York Center
Thu 19:58:28 39.3578 -74.5219 40° Northeast 465 535 22,100 -2,550 Descending New York Center
Thu 19:59:29 39.4572 -74.4089 41° Northeast 457 526 20,000 -1,983 Descending New York Center
Thu 20:00:29 39.5542 -74.3008 41° Northeast 457 526 18,100 -1,119 Descending New York Center
Thu 20:01:27 39.6403 -74.2081 40° Northeast 446 513 17,800 -1,119 Descending New York Center
Thu 20:02:27 39.7331 -74.1072 40° Northeast 439 505 15,900 -2,213 Descending New York Center
Thu 20:03:29 39.8297 -74.0011 40° Northeast 422 486 13,300 -2,150 Descending New York Center
Thu 20:04:27 39.9211 -73.9322 30° Northeast 394 453 11,600 -1,160 Descending New York Center
Thu 20:05:28 40.0042 -73.8736 28° Northeast 355 409 11,000 -397 Descending New York Center
Thu 20:06:28 40.0681 -73.8222 32° Northeast 315 362 10,800 -950 Descending New York Center
Thu 20:07:28 40.1425 -73.7578 33° Northeast 291 335 9,100 -1,733 Descending New York Center
Thu 20:07:58 40.1833 -73.7333 25° Northeast 288 331 8,200 -1,667 Descending New York TRACON
Thu 20:08:58 40.2500 -73.6833 30° Northeast 281 323 6,600 -1,350 Descending New York TRACON
Thu 20:09:58 40.3167 -73.6333 30° Northeast 272 313 5,500 -923 Descending New York TRACON
Thu 20:10:29 40.3422 -73.6031 42° Northeast 276 318 5,200 -857 Descending New York Center
Thu 20:11:29 40.4058 -73.5567 29° Northeast 266 306 4,200 -809 Descending New York Center
Thu 20:11:58 40.4333 -73.5333 33° Northeast 258 297 4,000 -135 Descending New York TRACON
Thu 20:12:58 40.5000 -73.4833 30° Northeast 261 300 4,000  Level New York TRACON
Thu 20:13:58 40.5667 -73.5000 349° North 255 293 4,000  Level New York TRACON
Thu 20:14:58 40.6333 -73.5000 360° North 245 282 4,000  Level New York TRACON
Thu 20:15:58 40.7000 -73.5000 360° North 187 215 4,000 -400 Level New York TRACON
Thu 20:16:58 40.7333 -73.5333 323° Northwest 179 206 3,200 -900 Descending New York TRACON
Thu 20:17:58 40.7833 -73.5667 333° Northwest 182 209 2,200 -550 Descending New York TRACON
Thu 20:18:58 40.7833 -73.6167 270° West 179 206 2,100 -100 Descending New York TRACON
Thu 20:19:58 40.7667 -73.6667 246° West 162 186 2,000 -150 Descending New York TRACON
Thu 20:20:58 40.7333 -73.6833 201° Southwest 136 157 1,800 -200 Descending New York TRACON

Login

Don't have an account? Register now (free) for customized features, flight alerts, and more!